sensor_id;sensor_type;location;lat;lon;timestamp;P1;durP1;ratioP1;P2;durP2;ratioP2
50355;SDS011;36264;51.296;-0.602;2023-07-13T00:02:07;2.72;;;1.67;;
50355;SDS011;36264;51.296;-0.602;2023-07-13T00:04:34;2.05;;;1.40;;
50355;SDS011;36264;51.296;-0.602;2023-07-13T00:06:59;3.05;;;1.75;;
50355;SDS011;36264;51.296;-0.602;2023-07-13T00:09:25;4.00;;;1.70;;
50355;SDS011;36264;51.296;-0.602;2023-07-13T00:11:55;3.33;;;1.50;;
50355;SDS011;36264;51.296;-0.602;2023-07-13T00:14:23;3.13;;;1.60;;
50355;SDS011;36264;51.296;-0.602;2023-07-13T00:16:49;3.53;;;1.58;;
50355;SDS011;36264;51.296;-0.602;2023-07-13T00:19:15;2.00;;;1.50;;
50355;SDS011;36264;51.296;-0.602;2023-07-13T00:21:40;3.40;;;1.60;;
50355;SDS011;36264;51.296;-0.602;2023-07-13T00:24:07;1.75;;;1.40;;
50355;SDS011;36264;51.296;-0.602;2023-07-13T00:26:37;2.53;;;1.40;;
50355;SDS011;36264;51.296;-0.602;2023-07-13T00:29:03;2.60;;;1.60;;
50355;SDS011;36264;51.296;-0.602;2023-07-13T00:31:29;2.15;;;1.25;;
50355;SDS011;36264;51.296;-0.602;2023-07-13T00:33:55;2.17;;;1.45;;
50355;SDS011;36264;51.296;-0.602;2023-07-13T00:36:21;2.50;;;1.50;;
50355;SDS011;36264;51.296;-0.602;2023-07-13T00:38:46;2.78;;;1.83;;
50355;SDS011;36264;51.296;-0.602;2023-07-13T00:41:12;2.35;;;1.50;;
50355;SDS011;36264;51.296;-0.602;2023-07-13T00:43:38;1.83;;;1.40;;
50355;SDS011;36264;51.296;-0.602;2023-07-13T00:46:12;2.47;;;1.45;;
50355;SDS011;36264;51.296;-0.602;2023-07-13T00:48:37;2.53;;;1.40;;
50355;SDS011;36264;51.296;-0.602;2023-07-13T00:51:03;4.45;;;1.55;;
50355;SDS011;36264;51.296;-0.602;2023-07-13T00:53:29;2.35;;;1.50;;
50355;SDS011;36264;51.296;-0.602;2023-07-13T00:55:57;2.53;;;1.35;;
50355;SDS011;36264;51.296;-0.602;2023-07-13T00:58:24;2.17;;;1.38;;
50355;SDS011;36264;51.296;-0.602;2023-07-13T01:00:51;2.45;;;1.48;;
50355;SDS011;36264;51.296;-0.602;2023-07-13T01:03:17;2.05;;;1.30;;
50355;SDS011;36264;51.296;-0.602;2023-07-13T01:05:43;2.03;;;1.35;;
50355;SDS011;36264;51.296;-0.602;2023-07-13T01:08:12;3.45;;;1.60;;
50355;SDS011;36264;51.296;-0.602;2023-07-13T01:10:37;2.40;;;1.40;;
50355;SDS011;36264;51.296;-0.602;2023-07-13T01:13:10;2.63;;;1.30;;
50355;SDS011;36264;51.296;-0.602;2023-07-13T01:15:42;3.88;;;1.70;;
50355;SDS011;36264;51.296;-0.602;2023-07-13T01:18:11;1.90;;;1.20;;
50355;SDS011;36264;51.296;-0.602;2023-07-13T01:20:39;1.50;;;1.00;;
50355;SDS011;36264;51.296;-0.602;2023-07-13T01:23:06;1.83;;;1.45;;
50355;SDS011;36264;51.296;-0.602;2023-07-13T01:25:34;3.03;;;1.40;;
50355;SDS011;36264;51.296;-0.602;2023-07-13T01:28:00;3.85;;;1.60;;
50355;SDS011;36264;51.296;-0.602;2023-07-13T01:30:27;2.22;;;1.40;;
50355;SDS011;36264;51.296;-0.602;2023-07-13T01:32:52;2.10;;;1.40;;
50355;SDS011;36264;51.296;-0.602;2023-07-13T01:35:18;1.88;;;1.30;;
50355;SDS011;36264;51.296;-0.602;2023-07-13T01:37:43;2.08;;;1.25;;
50355;SDS011;36264;51.296;-0.602;2023-07-13T01:40:10;3.13;;;1.55;;
50355;SDS011;36264;51.296;-0.602;2023-07-13T01:42:36;2.53;;;1.48;;
50355;SDS011;36264;51.296;-0.602;2023-07-13T01:45:02;2.05;;;1.33;;
50355;SDS011;36264;51.296;-0.602;2023-07-13T01:47:28;2.30;;;1.60;;
50355;SDS011;36264;51.296;-0.602;2023-07-13T01:49:55;3.40;;;1.55;;
50355;SDS011;36264;51.296;-0.602;2023-07-13T01:52:21;3.15;;;1.45;;
50355;SDS011;36264;51.296;-0.602;2023-07-13T01:54:46;3.75;;;1.92;;
50355;SDS011;36264;51.296;-0.602;2023-07-13T01:57:11;3.90;;;1.90;;
50355;SDS011;36264;51.296;-0.602;2023-07-13T01:59:37;3.88;;;1.92;;
50355;SDS011;36264;51.296;-0.602;2023-07-13T02:02:02;4.07;;;1.92;;
50355;SDS011;36264;51.296;-0.602;2023-07-13T02:04:27;6.88;;;3.17;;
50355;SDS011;36264;51.296;-0.602;2023-07-13T02:06:53;8.32;;;3.50;;
50355;SDS011;36264;51.296;-0.602;2023-07-13T02:09:20;9.15;;;3.72;;
50355;SDS011;36264;51.296;-0.602;2023-07-13T02:11:45;10.73;;;4.07;;
50355;SDS011;36264;51.296;-0.602;2023-07-13T02:14:11;10.32;;;3.97;;
50355;SDS011;36264;51.296;-0.602;2023-07-13T02:16:36;10.75;;;4.32;;
50355;SDS011;36264;51.296;-0.602;2023-07-13T02:19:02;12.35;;;5.13;;
50355;SDS011;36264;51.296;-0.602;2023-07-13T02:21:27;11.40;;;4.72;;
50355;SDS011;36264;51.296;-0.602;2023-07-13T02:23:52;9.68;;;4.30;;
50355;SDS011;36264;51.296;-0.602;2023-07-13T02:26:18;13.57;;;4.90;;
50355;SDS011;36264;51.296;-0.602;2023-07-13T02:28:44;11.45;;;4.30;;
50355;SDS011;36264;51.296;-0.602;2023-07-13T02:31:10;11.63;;;4.30;;
50355;SDS011;36264;51.296;-0.602;2023-07-13T02:33:38;6.85;;;3.78;;
50355;SDS011;36264;51.296;-0.602;2023-07-13T02:36:03;9.93;;;4.32;;
50355;SDS011;36264;51.296;-0.602;2023-07-13T02:38:30;12.23;;;5.15;;
50355;SDS011;36264;51.296;-0.602;2023-07-13T02:40:58;9.48;;;4.90;;
50355;SDS011;36264;51.296;-0.602;2023-07-13T02:43:24;9.75;;;5.30;;
50355;SDS011;36264;51.296;-0.602;2023-07-13T02:45:49;11.98;;;5.78;;
50355;SDS011;36264;51.296;-0.602;2023-07-13T02:48:14;10.05;;;5.55;;
50355;SDS011;36264;51.296;-0.602;2023-07-13T02:50:40;12.52;;;5.90;;
50355;SDS011;36264;51.296;-0.602;2023-07-13T02:53:05;15.88;;;7.22;;
50355;SDS011;36264;51.296;-0.602;2023-07-13T02:55:31;21.80;;;10.68;;
50355;SDS011;36264;51.296;-0.602;2023-07-13T02:57:56;18.13;;;9.57;;
50355;SDS011;36264;51.296;-0.602;2023-07-13T03:00:22;20.35;;;10.75;;
50355;SDS011;36264;51.296;-0.602;2023-07-13T03:02:48;22.80;;;9.10;;
50355;SDS011;36264;51.296;-0.602;2023-07-13T03:05:13;16.67;;;8.75;;
50355;SDS011;36264;51.296;-0.602;2023-07-13T03:07:39;22.45;;;10.65;;
50355;SDS011;36264;51.296;-0.602;2023-07-13T03:10:05;22.65;;;10.80;;
50355;SDS011;36264;51.296;-0.602;2023-07-13T03:12:31;25.05;;;12.07;;
50355;SDS011;36264;51.296;-0.602;2023-07-13T03:14:57;28.55;;;13.73;;
50355;SDS011;36264;51.296;-0.602;2023-07-13T03:17:23;33.65;;;15.25;;
50355;SDS011;36264;51.296;-0.602;2023-07-13T03:19:48;33.20;;;14.80;;
50355;SDS011;36264;51.296;-0.602;2023-07-13T03:22:16;53.05;;;22.92;;
50355;SDS011;36264;51.296;-0.602;2023-07-13T03:24:42;43.60;;;17.92;;
50355;SDS011;36264;51.296;-0.602;2023-07-13T03:27:07;36.20;;;17.20;;
50355;SDS011;36264;51.296;-0.602;2023-07-13T03:29:33;36.28;;;15.98;;
50355;SDS011;36264;51.296;-0.602;2023-07-13T03:31:58;44.45;;;18.23;;
50355;SDS011;36264;51.296;-0.602;2023-07-13T03:34:24;33.33;;;16.42;;
50355;SDS011;36264;51.296;-0.602;2023-07-13T03:36:49;33.35;;;15.32;;
50355;SDS011;36264;51.296;-0.602;2023-07-13T03:39:15;30.10;;;16.38;;
50355;SDS011;36264;51.296;-0.602;2023-07-13T03:41:40;40.55;;;18.50;;
50355;SDS011;36264;51.296;-0.602;2023-07-13T03:44:06;40.25;;;20.13;;
50355;SDS011;36264;51.296;-0.602;2023-07-13T03:46:32;35.78;;;19.05;;
50355;SDS011;36264;51.296;-0.602;2023-07-13T03:48:58;37.95;;;17.13;;
50355;SDS011;36264;51.296;-0.602;2023-07-13T03:51:24;33.38;;;15.95;;
50355;SDS011;36264;51.296;-0.602;2023-07-13T03:53:49;34.05;;;15.82;;
50355;SDS011;36264;51.296;-0.602;2023-07-13T03:56:15;27.02;;;14.15;;
50355;SDS011;36264;51.296;-0.602;2023-07-13T03:58:43;23.02;;;12.50;;
50355;SDS011;36264;51.296;-0.602;2023-07-13T04:01:11;24.70;;;12.35;;
50355;SDS011;36264;51.296;-0.602;2023-07-13T04:03:37;18.45;;;10.27;;
50355;SDS011;36264;51.296;-0.602;2023-07-13T04:06:03;17.98;;;9.30;;
50355;SDS011;36264;51.296;-0.602;2023-07-13T04:08:31;13.93;;;7.75;;
50355;SDS011;36264;51.296;-0.602;2023-07-13T04:10:58;12.85;;;6.75;;
50355;SDS011;36264;51.296;-0.602;2023-07-13T04:13:25;10.48;;;6.32;;
50355;SDS011;36264;51.296;-0.602;2023-07-13T04:15:51;11.77;;;5.55;;
50355;SDS011;36264;51.296;-0.602;2023-07-13T04:18:18;11.93;;;6.25;;
50355;SDS011;36264;51.296;-0.602;2023-07-13T04:20:44;15.80;;;6.03;;
50355;SDS011;36264;51.296;-0.602;2023-07-13T04:23:10;14.10;;;7.03;;
50355;SDS011;36264;51.296;-0.602;2023-07-13T04:25:36;12.45;;;5.22;;
50355;SDS011;36264;51.296;-0.602;2023-07-13T04:28:02;10.32;;;4.93;;
50355;SDS011;36264;51.296;-0.602;2023-07-13T04:30:28;8.63;;;4.20;;
50355;SDS011;36264;51.296;-0.602;2023-07-13T04:32:54;6.05;;;3.58;;
50355;SDS011;36264;51.296;-0.602;2023-07-13T04:35:22;6.93;;;3.50;;
50355;SDS011;36264;51.296;-0.602;2023-07-13T04:37:48;6.43;;;3.50;;
50355;SDS011;36264;51.296;-0.602;2023-07-13T04:40:15;5.55;;;3.17;;
50355;SDS011;36264;51.296;-0.602;2023-07-13T04:42:42;5.72;;;2.83;;
50355;SDS011;36264;51.296;-0.602;2023-07-13T04:45:08;4.20;;;2.30;;
50355;SDS011;36264;51.296;-0.602;2023-07-13T04:47:33;6.65;;;2.75;;
50355;SDS011;36264;51.296;-0.602;2023-07-13T04:49:59;4.05;;;2.55;;
50355;SDS011;36264;51.296;-0.602;2023-07-13T04:52:24;12.07;;;4.22;;
50355;SDS011;36264;51.296;-0.602;2023-07-13T04:54:49;7.90;;;3.50;;
50355;SDS011;36264;51.296;-0.602;2023-07-13T04:57:15;8.18;;;3.72;;
50355;SDS011;36264;51.296;-0.602;2023-07-13T04:59:41;12.32;;;5.03;;
50355;SDS011;36264;51.296;-0.602;2023-07-13T05:02:06;10.23;;;5.13;;
50355;SDS011;36264;51.296;-0.602;2023-07-13T05:04:32;14.18;;;5.80;;
50355;SDS011;36264;51.296;-0.602;2023-07-13T05:06:57;14.43;;;6.07;;
50355;SDS011;36264;51.296;-0.602;2023-07-13T05:09:24;15.82;;;7.85;;
50355;SDS011;36264;51.296;-0.602;2023-07-13T05:11:49;10.38;;;5.68;;
50355;SDS011;36264;51.296;-0.602;2023-07-13T05:14:14;11.65;;;5.10;;
50355;SDS011;36264;51.296;-0.602;2023-07-13T05:16:41;13.02;;;6.13;;
50355;SDS011;36264;51.296;-0.602;2023-07-13T05:19:07;12.02;;;5.95;;
50355;SDS011;36264;51.296;-0.602;2023-07-13T05:21:33;18.67;;;7.35;;
50355;SDS011;36264;51.296;-0.602;2023-07-13T05:23:58;16.65;;;7.50;;
50355;SDS011;36264;51.296;-0.602;2023-07-13T05:26:23;27.13;;;9.20;;
50355;SDS011;36264;51.296;-0.602;2023-07-13T05:28:49;14.32;;;6.82;;
50355;SDS011;36264;51.296;-0.602;2023-07-13T05:31:14;21.48;;;6.93;;
50355;SDS011;36264;51.296;-0.602;2023-07-13T05:33:39;15.60;;;7.05;;
50355;SDS011;36264;51.296;-0.602;2023-07-13T05:36:05;12.48;;;4.88;;
50355;SDS011;36264;51.296;-0.602;2023-07-13T05:38:32;19.08;;;6.15;;
50355;SDS011;36264;51.296;-0.602;2023-07-13T05:40:57;13.20;;;5.40;;
50355;SDS011;36264;51.296;-0.602;2023-07-13T05:43:23;10.68;;;4.97;;
50355;SDS011;36264;51.296;-0.602;2023-07-13T05:45:49;9.70;;;4.97;;
50355;SDS011;36264;51.296;-0.602;2023-07-13T05:48:17;9.57;;;4.57;;
50355;SDS011;36264;51.296;-0.602;2023-07-13T05:50:43;9.57;;;4.47;;
50355;SDS011;36264;51.296;-0.602;2023-07-13T05:53:08;10.65;;;3.95;;
50355;SDS011;36264;51.296;-0.602;2023-07-13T05:55:33;6.82;;;3.47;;
50355;SDS011;36264;51.296;-0.602;2023-07-13T05:57:59;8.25;;;3.10;;
50355;SDS011;36264;51.296;-0.602;2023-07-13T06:00:25;5.78;;;2.90;;
50355;SDS011;36264;51.296;-0.602;2023-07-13T06:02:51;5.68;;;2.80;;
50355;SDS011;36264;51.296;-0.602;2023-07-13T06:05:17;4.75;;;2.47;;
50355;SDS011;36264;51.296;-0.602;2023-07-13T06:07:42;5.80;;;2.58;;
50355;SDS011;36264;51.296;-0.602;2023-07-13T06:10:08;6.35;;;2.28;;
50355;SDS011;36264;51.296;-0.602;2023-07-13T06:12:34;5.20;;;2.50;;
50355;SDS011;36264;51.296;-0.602;2023-07-13T06:14:59;4.82;;;2.42;;
50355;SDS011;36264;51.296;-0.602;2023-07-13T06:17:24;4.32;;;2.33;;
50355;SDS011;36264;51.296;-0.602;2023-07-13T06:19:50;2.85;;;1.75;;
50355;SDS011;36264;51.296;-0.602;2023-07-13T06:22:15;4.57;;;1.80;;
50355;SDS011;36264;51.296;-0.602;2023-07-13T06:24:40;5.35;;;1.90;;
50355;SDS011;36264;51.296;-0.602;2023-07-13T06:27:06;3.50;;;1.80;;
50355;SDS011;36264;51.296;-0.602;2023-07-13T06:29:31;4.03;;;1.70;;
50355;SDS011;36264;51.296;-0.602;2023-07-13T06:31:57;4.40;;;1.70;;
50355;SDS011;36264;51.296;-0.602;2023-07-13T06:34:22;5.45;;;1.80;;
50355;SDS011;36264;51.296;-0.602;2023-07-13T06:36:48;4.35;;;1.80;;
50355;SDS011;36264;51.296;-0.602;2023-07-13T06:39:13;2.70;;;1.52;;
50355;SDS011;36264;51.296;-0.602;2023-07-13T06:41:39;5.45;;;1.90;;
50355;SDS011;36264;51.296;-0.602;2023-07-13T06:44:05;3.50;;;1.80;;
50355;SDS011;36264;51.296;-0.602;2023-07-13T06:46:31;2.15;;;1.50;;
50355;SDS011;36264;51.296;-0.602;2023-07-13T06:48:56;2.30;;;1.60;;
50355;SDS011;36264;51.296;-0.602;2023-07-13T06:51:22;4.07;;;1.90;;
50355;SDS011;36264;51.296;-0.602;2023-07-13T06:53:47;5.18;;;1.70;;
50355;SDS011;36264;51.296;-0.602;2023-07-13T06:56:12;3.05;;;1.70;;
50355;SDS011;36264;51.296;-0.602;2023-07-13T06:58:38;2.40;;;1.58;;
50355;SDS011;36264;51.296;-0.602;2023-07-13T07:01:04;6.93;;;1.90;;
50355;SDS011;36264;51.296;-0.602;2023-07-13T07:03:30;2.13;;;1.55;;
50355;SDS011;36264;51.296;-0.602;2023-07-13T07:06:15;2.42;;;1.70;;
50355;SDS011;36264;51.296;-0.602;2023-07-13T07:08:42;4.07;;;1.90;;
50355;SDS011;36264;51.296;-0.602;2023-07-13T07:11:13;5.45;;;1.80;;
50355;SDS011;36264;51.296;-0.602;2023-07-13T07:13:41;3.63;;;1.80;;
50355;SDS011;36264;51.296;-0.602;2023-07-13T07:16:06;3.40;;;1.60;;
50355;SDS011;36264;51.296;-0.602;2023-07-13T07:18:33;3.00;;;1.65;;
50355;SDS011;36264;51.296;-0.602;2023-07-13T07:20:58;2.35;;;1.70;;
50355;SDS011;36264;51.296;-0.602;2023-07-13T07:23:23;2.83;;;1.70;;
50355;SDS011;36264;51.296;-0.602;2023-07-13T07:25:49;5.70;;;1.95;;
50355;SDS011;36264;51.296;-0.602;2023-07-13T07:28:15;4.97;;;1.80;;
50355;SDS011;36264;51.296;-0.602;2023-07-13T07:30:44;2.60;;;1.70;;
50355;SDS011;36264;51.296;-0.602;2023-07-13T07:33:10;2.88;;;1.58;;
50355;SDS011;36264;51.296;-0.602;2023-07-13T07:35:36;2.95;;;1.63;;
50355;SDS011;36264;51.296;-0.602;2023-07-13T07:38:01;3.30;;;1.80;;
50355;SDS011;36264;51.296;-0.602;2023-07-13T07:40:27;2.55;;;1.40;;
50355;SDS011;36264;51.296;-0.602;2023-07-13T07:42:52;4.60;;;1.65;;
50355;SDS011;36264;51.296;-0.602;2023-07-13T07:45:18;2.83;;;1.48;;
50355;SDS011;36264;51.296;-0.602;2023-07-13T07:47:44;3.03;;;1.80;;
50355;SDS011;36264;51.296;-0.602;2023-07-13T07:50:10;3.78;;;1.70;;
50355;SDS011;36264;51.296;-0.602;2023-07-13T07:52:35;3.03;;;1.67;;
50355;SDS011;36264;51.296;-0.602;2023-07-13T07:55:01;4.25;;;1.70;;
50355;SDS011;36264;51.296;-0.602;2023-07-13T07:57:26;3.40;;;1.70;;
50355;SDS011;36264;51.296;-0.602;2023-07-13T07:59:52;4.32;;;2.00;;
50355;SDS011;36264;51.296;-0.602;2023-07-13T08:02:17;4.70;;;2.13;;
50355;SDS011;36264;51.296;-0.602;2023-07-13T08:04:42;3.40;;;1.80;;
50355;SDS011;36264;51.296;-0.602;2023-07-13T08:07:08;4.90;;;1.95;;
50355;SDS011;36264;51.296;-0.602;2023-07-13T08:09:34;3.80;;;1.80;;
50355;SDS011;36264;51.296;-0.602;2023-07-13T08:12:00;3.50;;;1.80;;
50355;SDS011;36264;51.296;-0.602;2023-07-13T08:14:25;4.75;;;1.65;;
50355;SDS011;36264;51.296;-0.602;2023-07-13T08:16:50;5.22;;;1.67;;
50355;SDS011;36264;51.296;-0.602;2023-07-13T08:19:16;5.28;;;1.80;;
50355;SDS011;36264;51.296;-0.602;2023-07-13T08:21:41;3.95;;;1.63;;
50355;SDS011;36264;51.296;-0.602;2023-07-13T08:24:10;3.70;;;1.83;;
50355;SDS011;36264;51.296;-0.602;2023-07-13T08:26:35;5.70;;;2.10;;
50355;SDS011;36264;51.296;-0.602;2023-07-13T08:29:01;2.80;;;1.70;;
50355;SDS011;36264;51.296;-0.602;2023-07-13T08:31:27;4.25;;;2.00;;
50355;SDS011;36264;51.296;-0.602;2023-07-13T08:33:52;3.53;;;1.60;;
50355;SDS011;36264;51.296;-0.602;2023-07-13T08:36:18;4.50;;;1.98;;
50355;SDS011;36264;51.296;-0.602;2023-07-13T08:38:43;3.33;;;1.80;;
50355;SDS011;36264;51.296;-0.602;2023-07-13T08:41:12;5.15;;;2.00;;
50355;SDS011;36264;51.296;-0.602;2023-07-13T08:43:45;3.42;;;1.77;;
50355;SDS011;36264;51.296;-0.602;2023-07-13T08:48:58;2.17;;;1.52;;
50355;SDS011;36264;51.296;-0.602;2023-07-13T08:53:54;4.35;;;1.83;;
50355;SDS011;36264;51.296;-0.602;2023-07-13T08:56:25;2.55;;;1.60;;
50355;SDS011;36264;51.296;-0.602;2023-07-13T08:58:54;2.92;;;1.58;;
50355;SDS011;36264;51.296;-0.602;2023-07-13T09:01:24;3.45;;;1.80;;
50355;SDS011;36264;51.296;-0.602;2023-07-13T09:04:12;4.20;;;1.63;;
50355;SDS011;36264;51.296;-0.602;2023-07-13T09:07:01;4.45;;;1.60;;
50355;SDS011;36264;51.296;-0.602;2023-07-13T09:14:49;2.53;;;1.55;;
50355;SDS011;36264;51.296;-0.602;2023-07-13T09:17:35;4.13;;;1.52;;
50355;SDS011;36264;51.296;-0.602;2023-07-13T09:20:30;4.32;;;2.05;;
50355;SDS011;36264;51.296;-0.602;2023-07-13T09:23:00;3.50;;;1.50;;
50355;SDS011;36264;51.296;-0.602;2023-07-13T09:25:31;4.57;;;1.40;;
50355;SDS011;36264;51.296;-0.602;2023-07-13T09:30:51;4.60;;;1.50;;
50355;SDS011;36264;51.296;-0.602;2023-07-13T09:33:28;4.00;;;1.50;;
50355;SDS011;36264;51.296;-0.602;2023-07-13T09:35:56;3.15;;;1.55;;
50355;SDS011;36264;51.296;-0.602;2023-07-13T09:38:27;4.82;;;1.73;;
50355;SDS011;36264;51.296;-0.602;2023-07-13T09:43:33;3.65;;;2.03;;
50355;SDS011;36264;51.296;-0.602;2023-07-13T09:45:59;2.65;;;1.50;;
50355;SDS011;36264;51.296;-0.602;2023-07-13T09:48:25;4.30;;;1.38;;
50355;SDS011;36264;51.296;-0.602;2023-07-13T09:50:53;2.42;;;1.40;;
50355;SDS011;36264;51.296;-0.602;2023-07-13T09:55:47;3.80;;;1.50;;
50355;SDS011;36264;51.296;-0.602;2023-07-13T10:00:53;2.65;;;1.38;;
50355;SDS011;36264;51.296;-0.602;2023-07-13T10:03:33;3.30;;;1.40;;
50355;SDS011;36264;51.296;-0.602;2023-07-13T10:06:11;2.47;;;1.42;;
50355;SDS011;36264;51.296;-0.602;2023-07-13T10:08:41;3.95;;;1.58;;
50355;SDS011;36264;51.296;-0.602;2023-07-13T10:11:10;4.97;;;1.83;;
50355;SDS011;36264;51.296;-0.602;2023-07-13T10:13:53;3.42;;;1.63;;
50355;SDS011;36264;51.296;-0.602;2023-07-13T10:16:24;3.47;;;1.70;;
50355;SDS011;36264;51.296;-0.602;2023-07-13T10:18:56;2.60;;;1.50;;
50355;SDS011;36264;51.296;-0.602;2023-07-13T10:21:30;2.35;;;1.40;;
50355;SDS011;36264;51.296;-0.602;2023-07-13T10:24:10;2.85;;;1.42;;
50355;SDS011;36264;51.296;-0.602;2023-07-13T10:29:11;2.95;;;1.30;;
50355;SDS011;36264;51.296;-0.602;2023-07-13T10:31:40;1.75;;;1.20;;
50355;SDS011;36264;51.296;-0.602;2023-07-13T10:34:09;2.63;;;1.40;;
50355;SDS011;36264;51.296;-0.602;2023-07-13T10:36:43;3.38;;;1.70;;
50355;SDS011;36264;51.296;-0.602;2023-07-13T10:39:28;2.45;;;1.48;;
50355;SDS011;36264;51.296;-0.602;2023-07-13T10:41:57;2.42;;;1.30;;
50355;SDS011;36264;51.296;-0.602;2023-07-13T10:47:00;2.35;;;1.40;;
50355;SDS011;36264;51.296;-0.602;2023-07-13T10:49:29;2.72;;;1.42;;
50355;SDS011;36264;51.296;-0.602;2023-07-13T10:51:56;3.38;;;1.60;;
50355;SDS011;36264;51.296;-0.602;2023-07-13T10:54:26;2.13;;;1.33;;
50355;SDS011;36264;51.296;-0.602;2023-07-13T10:57:13;3.45;;;1.50;;
50355;SDS011;36264;51.296;-0.602;2023-07-13T10:59:47;2.60;;;1.40;;
50355;SDS011;36264;51.296;-0.602;2023-07-13T11:02:39;3.20;;;1.60;;
50355;SDS011;36264;51.296;-0.602;2023-07-13T11:05:14;2.65;;;1.45;;
50355;SDS011;36264;51.296;-0.602;2023-07-13T11:07:53;3.97;;;1.50;;
50355;SDS011;36264;51.296;-0.602;2023-07-13T11:18:44;2.97;;;1.40;;
50355;SDS011;36264;51.296;-0.602;2023-07-13T11:23:41;3.78;;;1.70;;
50355;SDS011;36264;51.296;-0.602;2023-07-13T11:31:55;4.13;;;1.50;;
50355;SDS011;36264;51.296;-0.602;2023-07-13T11:34:31;1.88;;;1.30;;
50355;SDS011;36264;51.296;-0.602;2023-07-13T11:37:00;2.08;;;1.27;;
50355;SDS011;36264;51.296;-0.602;2023-07-13T11:41:57;2.80;;;1.50;;
50355;SDS011;36264;51.296;-0.602;2023-07-13T11:44:29;2.38;;;1.50;;
50355;SDS011;36264;51.296;-0.602;2023-07-13T11:46:57;2.47;;;1.40;;
50355;SDS011;36264;51.296;-0.602;2023-07-13T11:49:30;1.95;;;1.40;;
50355;SDS011;36264;51.296;-0.602;2023-07-13T11:51:56;2.03;;;1.30;;
50355;SDS011;36264;51.296;-0.602;2023-07-13T11:56:51;1.65;;;1.20;;
50355;SDS011;36264;51.296;-0.602;2023-07-13T11:59:17;3.00;;;1.50;;
50355;SDS011;36264;51.296;-0.602;2023-07-13T12:01:44;2.13;;;1.40;;
50355;SDS011;36264;51.296;-0.602;2023-07-13T12:04:24;2.55;;;1.40;;
50355;SDS011;36264;51.296;-0.602;2023-07-13T12:06:56;3.40;;;1.70;;
50355;SDS011;36264;51.296;-0.602;2023-07-13T12:09:25;2.70;;;1.55;;
50355;SDS011;36264;51.296;-0.602;2023-07-13T12:11:52;3.08;;;1.58;;
50355;SDS011;36264;51.296;-0.602;2023-07-13T12:14:18;2.78;;;1.55;;
50355;SDS011;36264;51.296;-0.602;2023-07-13T12:16:45;2.17;;;1.50;;
50355;SDS011;36264;51.296;-0.602;2023-07-13T12:19:17;3.17;;;1.50;;
50355;SDS011;36264;51.296;-0.602;2023-07-13T12:21:46;2.47;;;1.60;;
50355;SDS011;36264;51.296;-0.602;2023-07-13T12:24:16;2.70;;;1.60;;
50355;SDS011;36264;51.296;-0.602;2023-07-13T12:29:11;3.03;;;1.60;;
50355;SDS011;36264;51.296;-0.602;2023-07-13T12:31:42;3.28;;;1.77;;
50355;SDS011;36264;51.296;-0.602;2023-07-13T12:34:13;3.40;;;1.65;;
50355;SDS011;36264;51.296;-0.602;2023-07-13T12:36:45;2.40;;;1.65;;
50355;SDS011;36264;51.296;-0.602;2023-07-13T12:41:41;2.10;;;1.50;;
50355;SDS011;36264;51.296;-0.602;2023-07-13T12:44:12;2.42;;;1.50;;
50355;SDS011;36264;51.296;-0.602;2023-07-13T12:46:50;2.38;;;1.60;;
50355;SDS011;36264;51.296;-0.602;2023-07-13T12:49:18;2.90;;;1.60;;
50355;SDS011;36264;51.296;-0.602;2023-07-13T12:51:55;2.30;;;1.50;;
50355;SDS011;36264;51.296;-0.602;2023-07-13T12:54:23;3.03;;;1.65;;
50355;SDS011;36264;51.296;-0.602;2023-07-13T12:56:49;2.25;;;1.48;;
50355;SDS011;36264;51.296;-0.602;2023-07-13T12:59:19;2.40;;;1.60;;
50355;SDS011;36264;51.296;-0.602;2023-07-13T13:01:46;3.90;;;1.63;;
50355;SDS011;36264;51.296;-0.602;2023-07-13T13:04:14;4.10;;;1.73;;
50355;SDS011;36264;51.296;-0.602;2023-07-13T13:06:40;4.20;;;1.85;;
50355;SDS011;36264;51.296;-0.602;2023-07-13T13:09:16;4.13;;;1.90;;
50355;SDS011;36264;51.296;-0.602;2023-07-13T13:11:45;3.33;;;1.80;;
50355;SDS011;36264;51.296;-0.602;2023-07-13T13:14:10;2.95;;;1.58;;
50355;SDS011;36264;51.296;-0.602;2023-07-13T13:16:37;4.90;;;1.90;;
50355;SDS011;36264;51.296;-0.602;2023-07-13T13:19:17;3.75;;;1.85;;
50355;SDS011;36264;51.296;-0.602;2023-07-13T13:24:16;4.25;;;1.75;;
50355;SDS011;36264;51.296;-0.602;2023-07-13T13:26:45;3.85;;;2.00;;
50355;SDS011;36264;51.296;-0.602;2023-07-13T13:29:15;3.90;;;2.00;;
50355;SDS011;36264;51.296;-0.602;2023-07-13T13:31:43;3.70;;;1.90;;
50355;SDS011;36264;51.296;-0.602;2023-07-13T13:34:13;4.30;;;2.00;;
50355;SDS011;36264;51.296;-0.602;2023-07-13T13:36:40;3.97;;;2.08;;
50355;SDS011;36264;51.296;-0.602;2023-07-13T13:39:16;5.25;;;2.33;;
50355;SDS011;36264;51.296;-0.602;2023-07-13T13:41:43;2.97;;;1.83;;
50355;SDS011;36264;51.296;-0.602;2023-07-13T13:44:09;3.08;;;1.77;;
50355;SDS011;36264;51.296;-0.602;2023-07-13T13:46:35;2.92;;;1.70;;
50355;SDS011;36264;51.296;-0.602;2023-07-13T13:49:01;4.18;;;2.30;;
50355;SDS011;36264;51.296;-0.602;2023-07-13T13:51:27;2.92;;;1.60;;
50355;SDS011;36264;51.296;-0.602;2023-07-13T13:53:54;3.83;;;1.80;;
50355;SDS011;36264;51.296;-0.602;2023-07-13T13:56:19;5.22;;;2.38;;
50355;SDS011;36264;51.296;-0.602;2023-07-13T13:58:45;3.50;;;1.83;;
50355;SDS011;36264;51.296;-0.602;2023-07-13T14:01:18;6.13;;;1.90;;
50355;SDS011;36264;51.296;-0.602;2023-07-13T14:03:45;4.50;;;1.85;;
50355;SDS011;36264;51.296;-0.602;2023-07-13T14:06:13;6.53;;;2.10;;
50355;SDS011;36264;51.296;-0.602;2023-07-13T14:08:40;4.70;;;1.90;;
50355;SDS011;36264;51.296;-0.602;2023-07-13T14:11:07;4.38;;;2.22;;
50355;SDS011;36264;51.296;-0.602;2023-07-13T14:13:39;5.95;;;2.33;;
50355;SDS011;36264;51.296;-0.602;2023-07-13T14:16:17;7.07;;;2.83;;
50355;SDS011;36264;51.296;-0.602;2023-07-13T14:18:44;6.13;;;2.08;;
50355;SDS011;36264;51.296;-0.602;2023-07-13T14:21:11;3.95;;;1.98;;
50355;SDS011;36264;51.296;-0.602;2023-07-13T14:23:43;6.47;;;2.15;;
50355;SDS011;36264;51.296;-0.602;2023-07-13T14:26:13;5.82;;;2.40;;
50355;SDS011;36264;51.296;-0.602;2023-07-13T14:28:41;5.47;;;2.20;;
50355;SDS011;36264;51.296;-0.602;2023-07-13T14:31:09;4.15;;;2.25;;
50355;SDS011;36264;51.296;-0.602;2023-07-13T14:33:35;5.15;;;2.10;;
50355;SDS011;36264;51.296;-0.602;2023-07-13T14:36:00;4.07;;;1.80;;
50355;SDS011;36264;51.296;-0.602;2023-07-13T14:38:26;3.67;;;1.73;;
50355;SDS011;36264;51.296;-0.602;2023-07-13T14:40:52;6.40;;;2.30;;
50355;SDS011;36264;51.296;-0.602;2023-07-13T14:43:17;4.78;;;1.98;;
50355;SDS011;36264;51.296;-0.602;2023-07-13T14:45:44;6.28;;;2.15;;
50355;SDS011;36264;51.296;-0.602;2023-07-13T14:48:19;4.75;;;2.20;;
50355;SDS011;36264;51.296;-0.602;2023-07-13T14:50:46;7.63;;;2.10;;
50355;SDS011;36264;51.296;-0.602;2023-07-13T14:53:12;6.57;;;2.38;;
50355;SDS011;36264;51.296;-0.602;2023-07-13T14:55:39;3.90;;;1.90;;
50355;SDS011;36264;51.296;-0.602;2023-07-13T14:58:05;6.28;;;2.67;;
50355;SDS011;36264;51.296;-0.602;2023-07-13T15:00:31;6.60;;;2.65;;
50355;SDS011;36264;51.296;-0.602;2023-07-13T15:02:57;7.07;;;2.65;;
50355;SDS011;36264;51.296;-0.602;2023-07-13T15:05:26;5.65;;;2.17;;
50355;SDS011;36264;51.296;-0.602;2023-07-13T15:07:56;5.00;;;2.40;;
50355;SDS011;36264;51.296;-0.602;2023-07-13T15:10:24;6.95;;;2.78;;
50355;SDS011;36264;51.296;-0.602;2023-07-13T15:12:52;4.80;;;2.40;;
50355;SDS011;36264;51.296;-0.602;2023-07-13T15:15:18;8.38;;;2.50;;
50355;SDS011;36264;51.296;-0.602;2023-07-13T15:17:45;6.30;;;2.20;;
50355;SDS011;36264;51.296;-0.602;2023-07-13T15:20:34;4.38;;;2.03;;
50355;SDS011;36264;51.296;-0.602;2023-07-13T15:23:00;3.38;;;1.90;;
50355;SDS011;36264;51.296;-0.602;2023-07-13T15:25:27;3.30;;;2.10;;
50355;SDS011;36264;51.296;-0.602;2023-07-13T15:27:55;5.25;;;2.03;;
50355;SDS011;36264;51.296;-0.602;2023-07-13T15:30:21;3.88;;;2.03;;